Time;durP1;ratioP1;P1;durP2;ratioP2;P2;SDS_P1;SDS_P2;PMS_P1;PMS_P2;Temp;Humidity;BMP_temperature;BMP_pressure;BME280_temperature;BME280_humidity;BME280_pressure;Samples;Min_cycle;Max_cycle;Signal;HPM_P1;HPM_P2
2022/04/05 00:01:09;;;;;;;;;;;13.00;99.90;;;;;;6053012;23;19921;-91
2022/04/05 00:03:39;;;;;;;;;;;12.90;99.90;;;;;;6057272;23;19927;-91
2022/04/05 00:06:07;;;;;;;;;;;12.90;99.90;;;;;;6083873;23;19921;-91
2022/04/05 00:08:36;;;;;;;;;;;12.90;99.90;;;;;;6057315;23;19925;-91
2022/04/05 00:11:03;;;;;;;;;;;12.90;99.90;;;;;;6089823;23;20291;-90
2022/04/05 00:13:31;;;;;;;;;;;12.60;99.90;;;;;;6091183;23;19909;-92
2022/04/05 00:15:59;;;;;;;;;;;12.90;99.90;;;;;;6117606;23;19922;-91
2022/04/05 00:18:27;;;;;;;;;;;12.90;99.90;;;;;;6063746;23;19925;-91
2022/04/05 00:20:56;;;;;;;;;;;12.90;99.90;;;;;;6053469;23;19932;-91
2022/04/05 00:23:25;;;;;;;;;;;12.90;99.90;;;;;;6053385;23;19931;-92
2022/04/05 00:25:54;;;;;;;;;;;12.90;99.90;;;;;;6074229;23;19927;-92
2022/04/05 00:28:23;;;;;;;;;;;12.90;99.90;;;;;;6077665;23;19925;-90
2022/04/05 00:30:50;;;;;;;;;;;13.60;99.90;;;;;;6053568;23;19925;-90
2022/04/05 00:33:19;;;;;;;;;;;12.80;99.90;;;;;;6053581;23;19922;-91
2022/04/05 00:35:48;;;;;;;;;;;12.80;99.90;;;;;;6054442;23;19922;-90
2022/04/05 00:38:17;;;;;;;;;;;12.80;99.90;;;;;;6076207;23;19925;-91
2022/04/05 00:40:45;;;;;;;;;;;12.70;99.90;;;;;;6106600;23;19925;-92
2022/04/05 00:43:16;;;;;;;;;;;12.60;99.90;;;;;;6056198;23;20373;-90
2022/04/05 00:45:45;;;;;;;;;;;12.60;99.90;;;;;;6031546;23;20620;-91
2022/04/05 00:48:27;;;;;;;;;;;12.60;99.90;;;;;;6058944;23;19928;-92
2022/04/05 00:50:57;;;;;;;;;;;12.50;99.90;;;;;;6081895;23;19921;-91
2022/04/05 00:53:25;;;;;;;;;;;12.50;99.90;;;;;;6059056;23;19931;-91
2022/04/05 00:55:54;;;;;;;;;;;12.50;99.90;;;;;;6057074;23;19927;-91
2022/04/05 00:58:24;;;;;;;;;;;12.40;99.90;;;;;;6057823;23;19926;-91
2022/04/05 01:00:52;;;;;;;;;;;12.40;99.90;;;;;;6069711;23;19928;-91
2022/04/05 01:03:20;;;;;;;;;;;12.40;99.90;;;;;;6118736;23;19922;-90
2022/04/05 01:05:50;;;;;;;;;;;12.30;99.90;;;;;;6120319;23;19932;-92
2022/04/05 01:08:19;;;;;;;;;;;12.30;99.90;;;;;;6095004;23;20284;-90
2022/04/05 01:10:47;;;;;;;;;;;12.40;99.90;;;;;;6069849;23;19921;-91
2022/04/05 01:13:15;;;;;;;;;;;12.30;99.90;;;;;;6079466;23;19928;-90
2022/04/05 01:15:42;;;;;;;;;;;12.30;99.90;;;;;;6034549;23;19921;-91
2022/04/05 01:18:10;;;;;;;;;;;12.30;99.90;;;;;;6034285;23;19932;-92
2022/04/05 01:20:37;;;;;;;;;;;12.20;99.90;;;;;;6056871;23;19921;-91
2022/04/05 01:23:05;;;;;;;;;;;12.20;99.90;;;;;;6108509;23;19937;-91
2022/04/05 01:25:33;;;;;;;;;;;11.50;99.90;;;;;;6103199;23;19921;-91
2022/04/05 01:28:02;;;;;;;;;;;12.20;99.90;;;;;;6076590;23;19921;-91
2022/04/05 01:30:29;;;;;;;;;;;12.20;99.90;;;;;;6053182;23;19931;-91
2022/04/05 01:32:59;;;;;;;;;;;13.40;99.90;;;;;;6050754;23;19921;-92
2022/04/05 01:35:27;;;;;;;;;;;12.20;99.90;;;;;;6076629;23;19925;-91
2022/04/05 01:37:57;;;;;;;;;;;12.10;99.90;;;;;;6099737;23;19936;-91
2022/04/05 01:40:25;;;;;;;;;;;11.80;99.90;;;;;;6050835;23;20514;-91
2022/04/05 01:42:53;;;;;;;;;;;12.10;99.90;;;;;;6029098;23;19947;-91
2022/04/05 01:45:23;;;;;;;;;;;12.00;99.90;;;;;;6051242;23;19921;-90
2022/04/05 01:47:51;;;;;;;;;;;12.00;99.90;;;;;;6078653;23;19921;-90
2022/04/05 01:50:20;;;;;;;;;;;11.90;99.90;;;;;;6053899;23;19922;-92
2022/04/05 01:52:47;;;;;;;;;;;12.00;99.90;;;;;;6052524;23;19925;-92
2022/04/05 01:55:15;;;;;;;;;;;12.00;99.90;;;;;;6054799;23;19940;-91
2022/04/05 01:57:42;;;;;;;;;;;12.00;99.90;;;;;;6076316;23;19921;-92
2022/04/05 02:00:14;;;;;;;;;;;11.90;99.90;;;;;;6052232;23;20522;-92
2022/04/05 02:02:43;;;;;;;;;;;12.90;99.90;;;;;;6051933;23;19928;-91
2022/04/05 02:05:12;;;;;;;;;;;11.80;99.90;;;;;;6074443;23;20249;-93
2022/04/05 02:07:42;;;;;;;;;;;11.90;99.90;;;;;;6051650;23;19928;-91
2022/04/05 02:10:12;;;;;;;;;;;12.60;99.90;;;;;;6052020;23;19921;-92
2022/04/05 02:12:40;;;;;;;;;;;11.90;99.90;;;;;;6052924;23;19922;-92
2022/04/05 02:15:31;;;;;;;;;;;11.90;99.90;;;;;;6056515;23;19928;-92
2022/04/05 02:18:07;;;;;;;;;;;11.90;99.90;;;;;;6099941;23;20249;-90
2022/04/05 02:20:34;;;;;;;;;;;11.90;99.90;;;;;;6050851;23;19921;-92
2022/04/05 02:23:02;;;;;;;;;;;11.90;99.90;;;;;;6074996;23;19921;-92
2022/04/05 02:25:49;;;;;;;;;;;11.90;99.90;;;;;;6029969;23;19925;-93
2022/04/05 02:28:21;;;;;;;;;;;11.90;99.90;;;;;;6050508;23;19925;-92
2022/04/05 02:30:53;;;;;;;;;;;12.00;99.90;;;;;;6078449;23;19927;-91
2022/04/05 02:33:26;;;;;;;;;;;11.90;99.90;;;;;;6048092;23;19922;-91
2022/04/05 02:35:58;;;;;;;;;;;11.90;99.90;;;;;;6071495;23;19921;-91
2022/04/05 02:38:26;;;;;;;;;;;11.90;99.90;;;;;;6071206;23;20338;-90
2022/04/05 02:40:57;;;;;;;;;;;11.90;99.90;;;;;;6047850;23;20439;-90
2022/04/05 02:43:27;;;;;;;;;;;11.90;99.90;;;;;;6047701;23;19926;-90
2022/04/05 02:45:56;;;;;;;;;;;11.90;99.90;;;;;;6050360;23;19929;-91
2022/04/05 02:48:27;;;;;;;;;;;11.90;99.90;;;;;;6073637;23;19936;-91
2022/04/05 02:50:55;;;;;;;;;;;11.90;99.90;;;;;;6048703;23;19921;-92
2022/04/05 02:53:25;;;;;;;;;;;11.90;99.90;;;;;;6050763;23;19921;-91
2022/04/05 02:55:53;;;;;;;;;;;11.90;99.90;;;;;;6051093;23;19927;-92
2022/04/05 02:58:21;;;;;;;;;;;11.90;99.90;;;;;;6088234;23;19925;-91
2022/04/05 03:00:50;;;;;;;;;;;11.90;99.90;;;;;;6100900;23;19931;-92
2022/04/05 03:03:18;;;;;;;;;;;11.90;99.90;;;;;;6077574;23;19921;-91
2022/04/05 03:05:51;;;;;;;;;;;11.90;99.90;;;;;;6101328;23;19928;-92
2022/04/05 03:08:20;;;;;;;;;;;11.80;99.90;;;;;;6102781;23;19921;-91
2022/04/05 03:10:48;;;;;;;;;;;11.80;99.90;;;;;;6051223;23;19921;-91
2022/04/05 03:13:17;;;;;;;;;;;11.80;99.90;;;;;;6076030;23;20270;-91
2022/04/05 03:15:45;;;;;;;;;;;11.80;99.90;;;;;;6099294;23;19925;-91
2022/04/05 03:18:14;;;;;;;;;;;11.20;99.90;;;;;;6099710;23;19927;-92
2022/04/05 03:20:45;;;;;;;;;;;11.80;99.90;;;;;;6099050;23;19928;-90
2022/04/05 03:23:14;;;;;;;;;;;11.80;99.90;;;;;;6102265;23;19944;-90
2022/04/05 03:25:43;;;;;;;;;;;11.80;99.90;;;;;;6096237;23;19925;-90
2022/04/05 03:28:11;;;;;;;;;;;11.80;99.90;;;;;;6072534;23;19928;-91
2022/04/05 03:30:39;;;;;;;;;;;11.70;99.90;;;;;;6076744;23;20251;-91
2022/04/05 03:33:08;;;;;;;;;;;11.70;99.90;;;;;;6050639;23;19925;-90
2022/04/05 03:35:38;;;;;;;;;;;11.70;99.90;;;;;;6099144;23;19921;-92
2022/04/05 03:38:08;;;;;;;;;;;11.70;99.90;;;;;;6120474;23;19921;-91
2022/04/05 03:40:38;;;;;;;;;;;11.60;99.90;;;;;;6073456;23;19928;-91
2022/04/05 03:43:12;;;;;;;;;;;11.50;99.90;;;;;;6097772;23;19929;-91
2022/04/05 03:45:43;;;;;;;;;;;11.60;99.90;;;;;;6100732;23;19929;-89
2022/04/05 03:48:12;;;;;;;;;;;11.50;99.90;;;;;;6073029;23;19922;-89
2022/04/05 03:50:40;;;;;;;;;;;11.60;99.90;;;;;;6101555;23;19929;-91
2022/04/05 03:53:08;;;;;;;;;;;11.50;99.90;;;;;;6074708;23;19922;-91
2022/04/05 03:55:36;;;;;;;;;;;11.60;99.90;;;;;;6048493;23;19929;-91
2022/04/05 03:58:11;;;;;;;;;;;11.60;99.90;;;;;;6098460;23;19921;-91
2022/04/05 04:00:40;;;;;;;;;;;11.50;99.90;;;;;;6072560;23;19929;-90
2022/04/05 04:03:17;;;;;;;;;;;11.50;99.90;;;;;;6050324;23;19925;-91
2022/04/05 04:05:47;;;;;;;;;;;11.60;99.90;;;;;;6072776;23;19929;-90
2022/04/05 04:08:15;;;;;;;;;;;11.50;99.90;;;;;;6052362;23;19921;-90
2022/04/05 04:10:47;;;;;;;;;;;11.50;99.90;;;;;;6074591;23;19921;-90
2022/04/05 04:13:18;;;;;;;;;;;11.50;99.90;;;;;;6123567;23;19930;-90
2022/04/05 04:15:48;;;;;;;;;;;11.50;99.90;;;;;;6099401;23;19948;-91
2022/04/05 04:18:16;;;;;;;;;;;11.50;99.90;;;;;;6125928;23;19930;-90
2022/04/05 04:20:50;;;;;;;;;;;11.50;99.90;;;;;;6099821;23;19974;-90
2022/04/05 04:23:20;;;;;;;;;;;11.50;99.90;;;;;;6076217;23;19928;-90
2022/04/05 04:25:53;;;;;;;;;;;11.50;99.90;;;;;;6076241;23;20382;-90
2022/04/05 04:28:22;;;;;;;;;;;11.50;99.90;;;;;;6085497;23;19925;-91
2022/04/05 04:30:50;;;;;;;;;;;11.50;99.90;;;;;;6059862;23;19932;-90
2022/04/05 04:33:17;;;;;;;;;;;11.50;99.90;;;;;;6114169;23;19921;-89
2022/04/05 04:35:45;;;;;;;;;;;11.50;99.90;;;;;;6086561;23;20278;-89
2022/04/05 04:38:15;;;;;;;;;;;11.50;99.90;;;;;;6087124;23;19925;-91
2022/04/05 04:40:47;;;;;;;;;;;11.50;99.90;;;;;;6080491;23;20349;-90
2022/04/05 04:43:18;;;;;;;;;;;11.50;99.90;;;;;;6082355;23;20349;-91
2022/04/05 04:45:46;;;;;;;;;;;11.50;99.90;;;;;;6054114;23;19922;-92
2022/04/05 04:48:13;;;;;;;;;;;11.50;99.90;;;;;;6075981;23;19956;-90
2022/04/05 04:50:41;;;;;;;;;;;11.50;99.90;;;;;;6075599;23;19922;-90
2022/04/05 04:53:11;;;;;;;;;;;11.50;99.90;;;;;;6076665;23;19921;-91
2022/04/05 04:55:39;;;;;;;;;;;11.50;99.90;;;;;;6076570;23;19928;-91
2022/04/05 04:58:27;;;;;;;;;;;11.50;99.90;;;;;;6103635;23;19935;-88
2022/04/05 05:00:55;;;;;;;;;;;11.50;99.90;;;;;;6078877;23;19925;-92
2022/04/05 05:03:23;;;;;;;;;;;11.50;99.90;;;;;;6108016;23;20389;-90
2022/04/05 05:05:52;;;;;;;;;;;11.80;99.90;;;;;;6103607;23;19922;-92
2022/04/05 05:08:19;;;;;;;;;;;11.40;99.90;;;;;;6079793;23;19921;-89
2022/04/05 05:10:48;;;;;;;;;;;11.50;99.90;;;;;;6105934;23;19932;-91
2022/04/05 05:13:17;;;;;;;;;;;11.40;99.90;;;;;;6142221;23;19921;-88
2022/04/05 05:15:53;;;;;;;;;;;11.40;99.90;;;;;;6129182;23;19927;-89
2022/04/05 05:18:21;;;;;;;;;;;11.40;99.90;;;;;;6124081;23;19944;-90
2022/04/05 05:20:49;;;;;;;;;;;11.40;99.90;;;;;;6076184;23;19931;-89
2022/04/05 05:23:16;;;;;;;;;;;11.40;99.90;;;;;;6099762;23;19921;-88
2022/04/05 05:25:45;;;;;;;;;;;11.40;99.90;;;;;;6072455;23;19925;-90
2022/04/05 05:28:12;;;;;;;;;;;11.40;99.90;;;;;;6102190;23;20231;-89
2022/04/05 05:30:41;;;;;;;;;;;11.40;99.90;;;;;;6075143;23;20330;-89
2022/04/05 05:33:09;;;;;;;;;;;11.40;99.90;;;;;;6097969;23;20517;-90
2022/04/05 05:35:37;;;;;;;;;;;11.40;99.90;;;;;;6100165;23;19921;-91
2022/04/05 05:38:06;;;;;;;;;;;11.40;99.90;;;;;;6127931;23;20329;-90
2022/04/05 05:40:37;;;;;;;;;;;11.50;99.90;;;;;;6131549;23;20273;-91
2022/04/05 05:43:06;;;;;;;;;;;11.40;99.90;;;;;;6110703;23;19921;-90
2022/04/05 05:45:38;;;;;;;;;;;11.40;99.90;;;;;;6107671;23;20111;-90
2022/04/05 05:48:08;;;;;;;;;;;11.40;99.90;;;;;;6130903;23;19921;-90
2022/04/05 05:50:36;;;;;;;;;;;11.70;99.90;;;;;;6111510;23;19921;-91
2022/04/05 05:53:05;;;;;;;;;;;11.40;99.90;;;;;;6133085;23;19970;-90
2022/04/05 05:55:35;;;;;;;;;;;11.40;99.90;;;;;;6059362;23;19932;-89
2022/04/05 05:58:04;;;;;;;;;;;10.60;99.90;;;;;;6078855;23;19925;-90
2022/04/05 06:00:35;;;;;;;;;;;11.40;99.90;;;;;;6066074;23;20246;-90
2022/04/05 06:03:05;;;;;;;;;;;11.40;99.90;;;;;;6066688;23;19936;-90
2022/04/05 06:05:36;;;;;;;;;;;11.40;99.90;;;;;;6090781;23;19922;-89
2022/04/05 06:08:10;;;;;;;;;;;11.40;99.90;;;;;;6075183;23;19935;-90
2022/04/05 06:10:45;;;;;;;;;;;11.40;99.90;;;;;;6123714;23;19909;-90
2022/04/05 06:13:15;;;;;;;;;;;11.40;99.90;;;;;;6096163;23;19906;-89
2022/04/05 06:15:46;;;;;;;;;;;11.40;99.90;;;;;;6069350;23;19932;-90
2022/04/05 06:18:14;;;;;;;;;;;11.40;99.90;;;;;;6061108;23;19928;-90
2022/04/05 06:20:43;;;;;;;;;;;10.90;99.90;;;;;;6107411;23;19921;-87
2022/04/05 06:23:10;;;;;;;;;;;11.40;99.90;;;;;;6083909;23;19936;-89
2022/04/05 06:25:39;;;;;;;;;;;11.40;99.90;;;;;;6082939;23;19932;-89
2022/04/05 06:28:07;;;;;;;;;;;11.40;99.90;;;;;;6059095;23;19921;-88
2022/04/05 06:30:46;;;;;;;;;;;11.40;99.90;;;;;;6110065;23;19925;-90
2022/04/05 06:33:19;;;;;;;;;;;11.70;99.90;;;;;;6084058;23;19921;-89
2022/04/05 06:35:56;;;;;;;;;;;11.50;99.90;;;;;;6057566;23;19921;-88
2022/04/05 06:38:37;;;;;;;;;;;11.40;99.90;;;;;;6100119;23;19921;-89
2022/04/05 06:41:17;;;;;;;;;;;11.40;99.90;;;;;;6057616;23;19931;-89
2022/04/05 06:44:11;;;;;;;;;;;11.50;99.90;;;;;;6060086;23;19921;-90
2022/04/05 06:46:56;;;;;;;;;;;11.60;99.90;;;;;;6083669;23;19974;-89
2022/04/05 06:49:29;;;;;;;;;;;12.80;99.90;;;;;;6085178;23;19956;-91
2022/04/05 06:52:05;;;;;;;;;;;11.50;99.90;;;;;;6059620;23;19928;-90
2022/04/05 06:54:35;;;;;;;;;;;11.40;99.90;;;;;;6036880;23;20145;-90
2022/04/05 06:57:03;;;;;;;;;;;11.40;99.90;;;;;;6083834;23;19925;-89
2022/04/05 06:59:40;;;;;;;;;;;11.50;99.90;;;;;;6059234;23;19935;-90
2022/04/05 07:02:11;;;;;;;;;;;11.70;99.90;;;;;;6059909;23;19918;-90
2022/04/05 07:04:43;;;;;;;;;;;11.50;99.90;;;;;;6085182;23;19925;-90
2022/04/05 07:07:12;;;;;;;;;;;11.50;99.90;;;;;;6087824;23;19935;-89
2022/04/05 07:09:46;;;;;;;;;;;11.60;99.90;;;;;;6038245;23;19931;-91
2022/04/05 07:12:19;;;;;;;;;;;11.70;99.90;;;;;;6083323;23;19925;-89
2022/04/05 07:14:54;;;;;;;;;;;11.60;99.90;;;;;;6085623;23;19927;-91
2022/04/05 07:17:23;;;;;;;;;;;11.60;99.90;;;;;;6057975;23;20451;-90
2022/04/05 07:20:07;;;;;;;;;;;11.60;99.90;;;;;;6041976;23;19927;-90
2022/04/05 07:22:49;;;;;;;;;;;11.70;99.90;;;;;;6062599;23;19925;-90
2022/04/05 07:25:20;;;;;;;;;;;11.70;99.90;;;;;;6060225;23;19931;-89
2022/04/05 07:27:52;;;;;;;;;;;11.70;99.90;;;;;;6106773;23;19925;-91
2022/04/05 07:30:20;;;;;;;;;;;11.70;99.90;;;;;;6057230;23;19921;-90
2022/04/05 07:32:51;;;;;;;;;;;11.80;99.90;;;;;;6083813;23;19921;-90
2022/04/05 07:35:21;;;;;;;;;;;11.80;99.90;;;;;;6060305;23;19931;-90
2022/04/05 07:38:00;;;;;;;;;;;11.80;99.90;;;;;;6109810;23;19922;-91
2022/04/05 07:40:57;;;;;;;;;;;11.80;99.90;;;;;;6085919;23;19931;-90
2022/04/05 07:43:28;;;;;;;;;;;11.90;99.90;;;;;;6085643;23;19921;-90
2022/04/05 07:45:58;;;;;;;;;;;11.90;99.90;;;;;;6062684;23;20269;-90
2022/04/05 07:48:30;;;;;;;;;;;11.90;99.90;;;;;;6041145;23;19909;-90
2022/04/05 07:51:03;;;;;;;;;;;12.50;99.90;;;;;;6092804;23;19940;-91
2022/04/05 07:53:35;;;;;;;;;;;12.00;99.90;;;;;;6068701;23;20328;-90
2022/04/05 07:56:08;;;;;;;;;;;12.00;99.90;;;;;;6081377;23;19921;-90
2022/04/05 07:58:43;;;;;;;;;;;12.30;99.90;;;;;;6056801;23;19921;-89
2022/04/05 08:01:11;;;;;;;;;;;12.10;99.90;;;;;;6080641;23;19929;-89
2022/04/05 08:03:39;;;;;;;;;;;12.10;99.90;;;;;;6055651;23;19921;-90
2022/04/05 08:06:08;;;;;;;;;;;12.20;99.90;;;;;;6058478;23;19925;-91
2022/04/05 08:08:41;;;;;;;;;;;12.20;99.90;;;;;;6081886;23;19921;-88
2022/04/05 08:11:25;;;;;;;;;;;12.40;99.90;;;;;;6083234;23;19927;-90
2022/04/05 08:13:54;;;;;;;;;;;12.20;99.90;;;;;;6059394;23;19936;-91
2022/04/05 08:16:28;;;;;;;;;;;12.20;99.90;;;;;;6060486;23;19925;-90
2022/04/05 08:18:58;;;;;;;;;;;12.20;99.90;;;;;;6107069;23;19921;-89
2022/04/05 08:21:29;;;;;;;;;;;12.20;99.90;;;;;;6034365;23;19921;-89
2022/04/05 08:24:07;;;;;;;;;;;12.40;99.90;;;;;;6105367;23;19936;-90
2022/04/05 08:27:04;;;;;;;;;;;12.30;99.90;;;;;;6081413;23;19921;-89
2022/04/05 08:29:40;;;;;;;;;;;12.40;99.90;;;;;;6078993;23;19921;-90
2022/04/05 08:32:14;;;;;;;;;;;12.60;99.90;;;;;;6109251;23;19921;-90
2022/04/05 08:34:47;;;;;;;;;;;12.50;99.90;;;;;;6081000;23;19928;-90
2022/04/05 08:37:18;;;;;;;;;;;12.50;99.90;;;;;;6057329;23;19925;-90
2022/04/05 08:39:52;;;;;;;;;;;14.00;99.90;;;;;;6083480;23;19925;-90
2022/04/05 08:42:23;;;;;;;;;;;12.40;99.90;;;;;;6103815;23;19931;-91
2022/04/05 08:44:51;;;;;;;;;;;12.50;99.90;;;;;;6077195;23;19931;-90
2022/04/05 08:47:25;;;;;;;;;;;12.50;99.90;;;;;;6058812;23;19925;-90
2022/04/05 08:49:53;;;;;;;;;;;12.50;99.90;;;;;;6102908;23;19931;-90
2022/04/05 08:52:20;;;;;;;;;;;12.60;99.90;;;;;;6101110;23;19925;-92
2022/04/05 08:54:48;;;;;;;;;;;12.60;99.90;;;;;;6055321;23;19927;-91
2022/04/05 08:57:16;;;;;;;;;;;12.70;99.90;;;;;;6056222;23;19925;-89
2022/04/05 08:59:45;;;;;;;;;;;12.70;99.90;;;;;;6079544;23;19921;-89
2022/04/05 09:02:22;;;;;;;;;;;12.70;99.90;;;;;;6079426;23;19922;-89
2022/04/05 09:04:52;;;;;;;;;;;12.70;99.90;;;;;;6054691;23;19929;-89
2022/04/05 09:07:21;;;;;;;;;;;12.70;99.90;;;;;;6081988;23;19928;-90
2022/04/05 09:10:06;;;;;;;;;;;12.70;99.90;;;;;;6081028;23;19928;-89
2022/04/05 09:12:38;;;;;;;;;;;12.70;99.90;;;;;;6056522;23;19935;-91
2022/04/05 09:15:11;;;;;;;;;;;12.70;99.90;;;;;;6054525;23;20370;-90
2022/04/05 09:17:39;;;;;;;;;;;12.70;99.90;;;;;;6052336;23;19925;-89
2022/04/05 09:20:09;;;;;;;;;;;12.70;99.90;;;;;;6073477;23;19940;-90
2022/04/05 09:22:38;;;;;;;;;;;11.60;99.90;;;;;;6076331;23;19921;-90
2022/04/05 09:25:10;;;;;;;;;;;12.80;99.90;;;;;;6034515;23;19925;-91
2022/04/05 09:27:55;;;;;;;;;;;12.80;99.90;;;;;;6060219;23;19927;-90
2022/04/05 09:30:33;;;;;;;;;;;13.20;99.90;;;;;;6056689;23;20249;-91
2022/04/05 09:33:04;;;;;;;;;;;12.80;99.90;;;;;;6061061;23;19933;-92
2022/04/05 09:35:43;;;;;;;;;;;12.80;99.90;;;;;;6062610;23;19921;-92
2022/04/05 09:38:14;;;;;;;;;;;12.80;99.90;;;;;;6059605;23;19925;-90
2022/04/05 09:40:44;;;;;;;;;;;13.00;99.90;;;;;;6058421;23;19951;-91
2022/04/05 09:43:32;;;;;;;;;;;13.00;99.90;;;;;;6062902;23;19925;-90
2022/04/05 09:46:02;;;;;;;;;;;13.20;99.90;;;;;;6060436;23;19922;-88
2022/04/05 09:48:35;;;;;;;;;;;13.20;99.90;;;;;;6084548;23;19922;-91
2022/04/05 09:51:09;;;;;;;;;;;13.30;99.90;;;;;;6085977;23;19921;-90
2022/04/05 09:53:50;;;;;;;;;;;13.30;99.90;;;;;;6061644;23;19927;-91
2022/04/05 09:56:23;;;;;;;;;;;13.30;99.90;;;;;;6063664;23;19931;-90
2022/04/05 09:59:04;;;;;;;;;;;13.20;99.90;;;;;;6090816;23;19921;-90
2022/04/05 10:01:35;;;;;;;;;;;13.30;99.90;;;;;;6057735;23;20305;-90
2022/04/05 10:04:20;;;;;;;;;;;13.20;99.90;;;;;;6034940;23;19940;-89
2022/04/05 10:06:49;;;;;;;;;;;13.20;99.90;;;;;;6082373;23;19925;-89
2022/04/05 10:09:21;;;;;;;;;;;13.40;99.90;;;;;;6054992;23;19932;-90
2022/04/05 10:11:50;;;;;;;;;;;13.50;99.90;;;;;;6051904;23;19925;-90
2022/04/05 10:14:43;;;;;;;;;;;13.60;99.90;;;;;;6053839;23;19940;-87
2022/04/05 10:17:27;;;;;;;;;;;13.70;99.90;;;;;;6052464;23;19922;-88
2022/04/05 10:19:56;;;;;;;;;;;13.90;99.90;;;;;;6031237;23;19932;-90
2022/04/05 10:22:26;;;;;;;;;;;14.10;99.90;;;;;;6028628;23;19975;-89
2022/04/05 10:24:57;;;;;;;;;;;14.10;99.90;;;;;;6055071;23;19925;-87
2022/04/05 10:27:32;;;;;;;;;;;14.10;99.90;;;;;;6052080;23;19922;-90
2022/04/05 10:30:06;;;;;;;;;;;14.20;99.90;;;;;;6053720;23;20124;-89
2022/04/05 10:32:46;;;;;;;;;;;14.30;99.90;;;;;;6058357;23;19926;-90
2022/04/05 10:35:21;;;;;;;;;;;14.30;99.90;;;;;;6063200;23;19925;-89
2022/04/05 10:37:52;;;;;;;;;;;14.40;99.90;;;;;;6056110;23;19928;-90
2022/04/05 10:40:25;;;;;;;;;;;14.40;99.90;;;;;;6057501;23;19910;-90
2022/04/05 10:42:57;;;;;;;;;;;14.40;99.90;;;;;;6077400;23;19928;-90
2022/04/05 10:45:33;;;;;;;;;;;14.50;99.90;;;;;;6078136;23;19926;-89
2022/04/05 10:48:16;;;;;;;;;;;14.50;99.90;;;;;;6030578;23;19922;-90
2022/04/05 10:51:30;;;;;;;;;;;14.50;99.90;;;;;;6054265;23;19940;-89
2022/04/05 10:54:18;;;;;;;;;;;14.80;99.90;;;;;;6055140;23;19922;-90
2022/04/05 10:57:11;;;;;;;;;;;14.60;99.90;;;;;;6055181;23;19932;-90
2022/04/05 10:59:48;;;;;;;;;;;14.60;99.90;;;;;;6054059;23;19910;-89
2022/04/05 11:02:36;;;;;;;;;;;14.60;99.90;;;;;;6029330;23;19926;-90
2022/04/05 11:05:15;;;;;;;;;;;14.70;99.90;;;;;;6053757;23;19929;-91
2022/04/05 11:07:59;;;;;;;;;;;16.00;99.90;;;;;;6003042;23;19922;-90
2022/04/05 11:10:37;;;;;;;;;;;14.60;99.90;;;;;;6028143;23;19926;-90
2022/04/05 11:13:16;;;;;;;;;;;14.70;99.90;;;;;;6004224;23;19929;-92
2022/04/05 11:15:52;;;;;;;;;;;14.60;99.90;;;;;;6027544;23;19932;-90
2022/04/05 11:18:28;;;;;;;;;;;14.50;99.90;;;;;;6030469;23;19922;-92
2022/04/05 11:20:58;;;;;;;;;;;14.80;99.90;;;;;;6037103;23;19922;-90
2022/04/05 11:23:47;;;;;;;;;;;14.50;99.90;;;;;;6057602;23;19917;-91
2022/04/05 11:26:21;;;;;;;;;;;14.80;99.90;;;;;;6057443;23;19924;-91
2022/04/05 11:28:55;;;;;;;;;;;15.00;99.90;;;;;;6009103;23;19932;-90
2022/04/05 11:31:37;;;;;;;;;;;14.70;99.90;;;;;;6056503;23;19921;-92
2022/04/05 11:34:46;;;;;;;;;;;14.80;99.90;;;;;;6056723;23;20337;-92
2022/04/05 11:37:31;;;;;;;;;;;14.80;99.90;;;;;;5945049;24;19923;-93
2022/04/05 11:40:14;;;;;;;;;;;14.70;99.90;;;;;;6050870;23;19932;-91
2022/04/05 11:42:41;;;;;;;;;;;14.60;99.90;;;;;;6029225;23;19922;-91
2022/04/05 11:45:09;;;;;;;;;;;14.60;99.90;;;;;;5997828;23;19928;-91
2022/04/05 11:47:38;;;;;;;;;;;14.60;99.90;;;;;;6025081;23;19921;-91
2022/04/05 11:50:07;;;;;;;;;;;14.80;99.90;;;;;;6027341;23;19928;-92
2022/04/05 11:52:37;;;;;;;;;;;14.80;99.90;;;;;;6024319;23;19926;-89
2022/04/05 11:58:06;;;;;;;;;;;15.10;99.90;;;;;;6035282;23;19935;-92
2022/04/05 12:00:52;;;;;;;;;;;15.10;99.90;;;;;;6073786;23;19936;-90
2022/04/05 12:03:24;;;;;;;;;;;15.10;99.90;;;;;;6053086;23;19922;-91
2022/04/05 12:05:53;;;;;;;;;;;15.00;99.90;;;;;;6082998;23;19922;-90
2022/04/05 12:08:22;;;;;;;;;;;15.50;99.90;;;;;;6058258;23;19932;-88
2022/04/05 12:10:54;;;;;;;;;;;14.90;99.90;;;;;;6083695;23;19929;-89
2022/04/05 12:13:49;;;;;;;;;;;14.90;99.90;;;;;;6061372;23;19921;-91
2022/04/05 12:16:24;;;;;;;;;;;14.80;99.90;;;;;;6085121;23;19921;-90
2022/04/05 12:18:57;;;;;;;;;;;14.80;99.90;;;;;;6039118;23;19921;-90
2022/04/05 12:21:27;;;;;;;;;;;14.70;99.90;;;;;;6063173;23;19920;-91
2022/04/05 12:23:59;;;;;;;;;;;14.60;99.90;;;;;;6056031;23;19922;-90
2022/04/05 12:26:31;;;;;;;;;;;14.50;99.90;;;;;;6054861;23;19921;-91
2022/04/05 12:29:01;;;;;;;;;;;14.30;99.90;;;;;;6082056;23;19921;-90
2022/04/05 12:31:34;;;;;;;;;;;14.20;99.90;;;;;;6033541;23;19926;-91
2022/04/05 12:34:11;;;;;;;;;;;14.20;99.90;;;;;;6086388;23;19936;-91
2022/04/05 12:36:39;;;;;;;;;;;14.10;99.90;;;;;;6058108;23;19926;-92
2022/04/05 12:39:16;;;;;;;;;;;14.10;99.90;;;;;;6060588;23;19922;-90
2022/04/05 12:41:53;;;;;;;;;;;14.00;99.90;;;;;;6057162;23;19926;-91
2022/04/05 12:44:26;;;;;;;;;;;14.10;99.90;;;;;;6052148;23;19931;-90
2022/04/05 12:47:14;;;;;;;;;;;14.30;99.90;;;;;;6079360;23;19922;-90
2022/04/05 12:49:49;;;;;;;;;;;14.20;99.90;;;;;;6056671;23;19933;-90
2022/04/05 12:52:20;;;;;;;;;;;15.20;99.90;;;;;;6085896;23;19928;-89
2022/04/05 12:54:57;;;;;;;;;;;14.90;99.90;;;;;;6059197;23;19940;-91
2022/04/05 12:57:41;;;;;;;;;;;14.70;99.90;;;;;;6058390;23;19922;-89
2022/04/05 13:00:20;;;;;;;;;;;14.80;99.90;;;;;;6057974;23;19932;-88
2022/04/05 13:03:16;;;;;;;;;;;15.00;99.90;;;;;;6081531;23;19922;-91
2022/04/05 13:08:38;;;;;;;;;;;15.00;99.90;;;;;;6104333;23;19941;-90
2022/04/05 13:11:29;;;;;;;;;;;15.10;99.90;;;;;;6105308;23;19928;-91
2022/04/05 13:14:12;;;;;;;;;;;15.20;99.90;;;;;;6087177;23;19929;-92
2022/04/05 13:16:45;;;;;;;;;;;15.30;99.90;;;;;;6088447;23;19925;-92
2022/04/05 13:19:33;;;;;;;;;;;15.40;99.90;;;;;;6110299;23;19936;-91
2022/04/05 13:22:01;;;;;;;;;;;15.30;99.90;;;;;;6089433;23;19922;-91
2022/04/05 13:24:44;;;;;;;;;;;15.30;99.90;;;;;;6082801;23;19936;-91
2022/04/05 13:27:23;;;;;;;;;;;15.50;99.90;;;;;;6055217;23;20354;-89
2022/04/05 13:29:56;;;;;;;;;;;15.20;99.90;;;;;;6083755;23;19926;-89
2022/04/05 13:32:27;;;;;;;;;;;15.20;99.90;;;;;;6082464;23;19925;-90
2022/04/05 13:34:59;;;;;;;;;;;15.50;99.90;;;;;;6058225;23;19926;-92
2022/04/05 13:37:33;;;;;;;;;;;15.70;99.90;;;;;;6058881;23;20227;-91
2022/04/05 13:40:01;;;;;;;;;;;16.00;99.90;;;;;;6082495;23;19935;-90
2022/04/05 13:42:33;;;;;;;;;;;14.80;99.50;;;;;;6080551;23;19925;-91
2022/04/05 13:45:03;;;;;;;;;;;16.00;99.60;;;;;;6083156;23;19921;-91
2022/04/05 13:47:34;;;;;;;;;;;16.00;99.50;;;;;;6082913;23;19918;-91
2022/04/05 13:50:09;;;;;;;;;;;16.20;99.60;;;;;;6084416;23;19922;-91
2022/04/05 13:52:40;;;;;;;;;;;16.40;99.10;;;;;;6087737;23;19985;-92
2022/04/05 13:55:13;;;;;;;;;;;16.50;98.90;;;;;;6083616;23;19921;-91
2022/04/05 13:57:43;;;;;;;;;;;16.60;98.70;;;;;;6109532;23;19928;-91
2022/04/05 14:00:17;;;;;;;;;;;16.50;98.40;;;;;;6057970;23;19940;-91
2022/04/05 14:02:48;;;;;;;;;;;16.40;98.10;;;;;;6036486;23;19944;-92
2022/04/05 14:05:19;;;;;;;;;;;16.30;98.60;;;;;;6064371;23;19932;-92
2022/04/05 14:08:06;;;;;;;;;;;16.60;99.40;;;;;;6079594;23;19917;-91
2022/04/05 14:10:39;;;;;;;;;;;15.90;98.70;;;;;;6080563;23;19925;-88
2022/04/05 14:13:28;;;;;;;;;;;15.90;98.30;;;;;;6053834;23;20398;-88
2022/04/05 14:16:08;;;;;;;;;;;16.20;98.70;;;;;;6074457;23;20450;-89
2022/04/05 14:18:38;;;;;;;;;;;17.10;98.50;;;;;;6022302;23;19928;-88
2022/04/05 14:21:26;;;;;;;;;;;16.00;98.00;;;;;;6054405;23;19928;-89
2022/04/05 14:23:54;;;;;;;;;;;15.90;98.00;;;;;;6057142;23;19932;-90
2022/04/05 14:26:26;;;;;;;;;;;15.70;98.20;;;;;;6056842;23;19926;-90
2022/04/05 14:28:59;;;;;;;;;;;16.10;98.10;;;;;;6078190;23;19921;-89
2022/04/05 14:31:46;;;;;;;;;;;15.80;97.70;;;;;;6057790;23;19922;-90
2022/04/05 14:34:15;;;;;;;;;;;15.90;97.40;;;;;;6059878;23;20338;-89
2022/04/05 14:36:45;;;;;;;;;;;15.90;97.70;;;;;;6053208;23;19932;-90
2022/04/05 14:39:13;;;;;;;;;;;15.90;97.60;;;;;;6051587;23;19922;-89
2022/04/05 14:41:41;;;;;;;;;;;15.90;97.50;;;;;;6050340;23;19921;-89
2022/04/05 14:44:12;;;;;;;;;;;15.80;97.70;;;;;;6029726;23;19926;-89
2022/04/05 14:46:40;;;;;;;;;;;15.80;97.70;;;;;;6032556;23;19921;-92
2022/04/05 14:49:16;;;;;;;;;;;15.70;97.30;;;;;;6077046;23;19926;-89
2022/04/05 14:51:44;;;;;;;;;;;15.50;97.30;;;;;;6074487;23;19922;-89
2022/04/05 14:54:12;;;;;;;;;;;15.50;97.60;;;;;;6053419;23;19921;-90